createdAt,value
2022-11-02T00:00:42.408Z,98451.75
2022-11-02T00:03:28.792Z,98452.28
2022-11-02T00:05:55.931Z,98450.38
2022-11-02T00:08:23.406Z,98453.13
2022-11-02T00:10:50.655Z,98452.47
2022-11-02T00:13:18.138Z,98449.66
2022-11-02T00:15:47.200Z,98449.03
2022-11-02T00:18:15.702Z,98454.19
2022-11-02T00:20:43.918Z,98450.81
2022-11-02T00:23:13.744Z,98457.13
2022-11-02T00:25:46.880Z,98457.94
2022-11-02T00:28:15.620Z,98453.22
2022-11-02T00:30:44.238Z,98462.56
2022-11-02T00:33:12.021Z,98458.38
2022-11-02T00:35:40.369Z,98462.56
2022-11-02T00:38:08.227Z,98458.28
2022-11-02T00:40:35.857Z,98462.78
2022-11-02T00:43:03.563Z,98464.34
2022-11-02T00:45:30.703Z,98458.81
2022-11-02T00:47:58.111Z,98461.53
2022-11-02T00:50:25.319Z,98461.44
2022-11-02T00:52:52.707Z,98460.69
2022-11-02T00:55:20.823Z,98463.22
2022-11-02T00:57:48.252Z,98460.50
2022-11-02T01:00:16.412Z,98453.56
2022-11-02T01:02:43.910Z,98464.97
2022-11-02T01:05:12.609Z,98461.50
2022-11-02T01:07:40.298Z,98468.63
2022-11-02T01:10:09.881Z,98464.00
2022-11-02T01:12:39.495Z,98467.13
2022-11-02T01:15:08.496Z,98471.31
2022-11-02T01:17:36.612Z,98467.97
2022-11-02T01:20:05.614Z,98467.34
2022-11-02T01:22:33.230Z,98472.72
2022-11-02T01:25:00.482Z,98471.88
2022-11-02T01:27:27.794Z,98476.47
2022-11-02T01:29:55.009Z,98472.72
2022-11-02T01:32:22.378Z,98478.06
2022-11-02T01:34:49.660Z,98476.63
2022-11-02T01:37:17.199Z,98470.31
2022-11-02T01:39:44.353Z,98466.97
2022-11-02T01:42:25.121Z,98465.28
2022-11-02T01:44:52.738Z,98463.00
2022-11-02T01:47:29.850Z,98462.16
2022-11-02T01:50:13.190Z,98463.53
2022-11-02T01:52:41.549Z,98455.03
2022-11-02T01:55:19.492Z,98459.75
2022-11-02T01:57:57.859Z,98458.28
2022-11-02T02:00:25.121Z,98465.91
2022-11-02T02:02:56.859Z,98464.06
2022-11-02T02:05:24.970Z,98458.63
2022-11-02T02:07:53.892Z,98459.66
2022-11-02T02:10:21.377Z,98462.50
2022-11-02T02:12:48.988Z,98464.78
2022-11-02T02:15:16.551Z,98468.91
2022-11-02T02:18:09.462Z,98470.88
2022-11-02T02:20:58.481Z,98469.31
2022-11-02T02:23:41.547Z,98472.03
2022-11-02T02:26:44.035Z,98477.03
2022-11-02T02:29:45.476Z,98489.69
2022-11-02T02:32:25.430Z,98469.94
2022-11-02T02:35:18.514Z,98481.53
2022-11-02T02:37:59.311Z,98479.13
2022-11-02T02:40:40.751Z,98484.38
2022-11-02T02:43:12.428Z,98475.56
2022-11-02T02:45:56.138Z,98477.47
2022-11-02T02:48:26.126Z,98476.50
2022-11-02T02:51:03.993Z,98474.97
2022-11-02T02:53:45.001Z,98470.56
2022-11-02T02:56:18.095Z,98479.47
2022-11-02T02:59:01.306Z,98472.53
2022-11-02T03:01:29.343Z,98477.34
2022-11-02T03:03:56.802Z,98470.44
2022-11-02T03:06:35.427Z,98476.72
2022-11-02T03:09:40.592Z,98481.22
2022-11-02T03:12:51.673Z,98482.16
2022-11-02T03:15:44.204Z,98478.50
2022-11-02T03:18:32.563Z,98483.31
2022-11-02T03:21:40.642Z,98477.53
2022-11-02T03:24:47.244Z,98488.00
2022-11-02T03:27:40.432Z,98490.00
2022-11-02T03:30:14.735Z,98494.41
2022-11-02T03:33:07.953Z,98494.59
2022-11-02T03:36:04.952Z,98500.84
2022-11-02T03:38:56.262Z,98502.44
2022-11-02T03:41:26.658Z,98501.66
2022-11-02T03:44:04.338Z,98501.31
2022-11-02T03:46:36.328Z,98490.59
2022-11-02T03:49:08.744Z,98499.63
2022-11-02T03:51:42.074Z,98490.72
2022-11-02T03:54:58.616Z,98490.84
2022-11-02T03:57:35.995Z,98497.09
2022-11-02T04:00:16.025Z,98494.19
2022-11-02T04:02:58.919Z,98500.66
2022-11-02T04:05:32.789Z,98499.63
2022-11-02T04:08:19.694Z,98504.28
2022-11-02T04:11:09.618Z,98511.56
2022-11-02T04:13:56.315Z,98510.47
2022-11-02T04:16:27.606Z,98509.00
2022-11-02T04:19:14.325Z,98507.94
2022-11-02T04:22:01.784Z,98515.78
2022-11-02T04:24:47.683Z,98512.72
2022-11-02T04:27:19.699Z,98510.94
2022-11-02T04:29:48.703Z,98509.59
2022-11-02T04:32:36.473Z,98518.06
2022-11-02T04:35:05.072Z,98518.28
2022-11-02T04:37:56.558Z,98515.94
2022-11-02T04:40:23.955Z,98519.50
2022-11-02T04:42:51.407Z,98519.22
2022-11-02T04:45:19.044Z,98520.06
2022-11-02T04:47:46.433Z,98513.88
2022-11-02T04:50:14.032Z,98514.50
2022-11-02T04:52:41.282Z,98524.44
2022-11-02T04:55:09.458Z,98519.22
2022-11-02T04:57:36.812Z,98518.38
2022-11-02T05:00:07.366Z,98511.94
2022-11-02T05:02:34.701Z,98524.25
2022-11-02T05:05:02.168Z,98521.13
2022-11-02T05:07:29.444Z,98520.41
2022-11-02T05:09:56.817Z,98527.69
2022-11-02T05:12:28.919Z,98525.28
2022-11-02T05:14:56.663Z,98528.94
2022-11-02T05:17:23.897Z,98529.88
2022-11-02T05:19:51.366Z,98528.00
2022-11-02T05:22:18.682Z,98529.88
2022-11-02T05:24:46.105Z,98533.75
2022-11-02T05:27:14.062Z,98532.13
2022-11-02T05:29:41.464Z,98526.19
2022-11-02T05:32:08.701Z,98518.94
2022-11-02T05:34:36.187Z,98532.94
2022-11-02T05:37:03.435Z,98537.88
2022-11-02T05:39:30.863Z,98540.69
2022-11-02T05:41:58.186Z,98527.44
2022-11-02T05:44:25.620Z,98538.63
2022-11-02T05:46:52.865Z,98532.34
2022-11-02T05:49:20.309Z,98530.69
2022-11-02T05:51:49.172Z,98538.13
2022-11-02T05:54:16.633Z,98537.19
2022-11-02T05:56:43.879Z,98539.06
2022-11-02T05:59:11.254Z,98541.00
2022-11-02T06:01:39.347Z,98547.69
2022-11-02T06:04:06.904Z,98544.22
2022-11-02T06:06:34.136Z,98543.19
2022-11-02T06:09:06.701Z,98536.63
2022-11-02T06:11:34.635Z,98540.84
2022-11-02T06:14:03.740Z,98541.81
2022-11-02T06:16:31.619Z,98547.50
2022-11-02T06:18:59.151Z,98544.34
2022-11-02T06:21:26.493Z,98547.63
2022-11-02T06:23:53.931Z,98556.00
2022-11-02T06:26:21.141Z,98555.81
2022-11-02T06:28:48.570Z,98550.13
2022-11-02T06:31:17.462Z,98557.47
2022-11-02T06:33:45.779Z,98565.94
2022-11-02T06:36:12.916Z,98562.72
2022-11-02T06:38:41.935Z,98561.66
2022-11-02T06:41:09.276Z,98557.03
2022-11-02T06:43:38.462Z,98561.03
2022-11-02T06:46:06.349Z,98563.13
2022-11-02T06:48:35.563Z,98563.34
2022-11-02T06:51:05.201Z,98558.91
2022-11-02T06:53:33.339Z,98556.16
2022-11-02T06:56:01.079Z,98563.28
2022-11-02T06:58:29.167Z,98565.03
2022-11-02T07:01:02.800Z,98573.53
2022-11-02T07:03:31.229Z,98570.44
2022-11-02T07:05:58.588Z,98559.16
2022-11-02T07:08:27.850Z,98570.66
2022-11-02T07:10:55.871Z,98572.44
2022-11-02T07:13:23.647Z,98571.72
2022-11-02T07:15:55.129Z,98571.34
2022-11-02T07:18:23.364Z,98576.56
2022-11-02T07:20:50.800Z,98574.13
2022-11-02T07:23:18.216Z,98581.16
2022-11-02T07:25:45.386Z,98580.31
2022-11-02T07:28:12.853Z,98582.94
2022-11-02T07:30:40.060Z,98582.94
2022-11-02T07:33:07.759Z,98577.22
2022-11-02T07:35:35.772Z,98590.59
2022-11-02T07:38:07.266Z,98582.47
2022-11-02T07:40:36.754Z,98589.50
2022-11-02T07:43:05.661Z,98583.88
2022-11-02T07:45:33.585Z,98582.38
2022-11-02T07:48:00.971Z,98575.16
2022-11-02T07:50:28.596Z,98573.59
2022-11-02T07:52:58.203Z,98582.25
2022-11-02T07:55:28.825Z,98584.03
2022-11-02T07:58:00.115Z,98579.78
2022-11-02T08:00:32.638Z,98578.50
2022-11-02T08:03:03.146Z,98575.59
2022-11-02T08:05:35.196Z,98573.41
2022-11-02T08:08:23.848Z,98581.44
2022-11-02T08:10:52.833Z,98582.00
2022-11-02T08:13:23.969Z,98579.94
2022-11-02T08:15:55.157Z,98581.34
2022-11-02T08:18:42.853Z,98584.00
2022-11-02T08:21:10.094Z,98579.50
2022-11-02T08:23:37.621Z,98580.72
2022-11-02T08:26:04.991Z,98577.72
2022-11-02T08:28:40.110Z,98576.91
2022-11-02T08:31:14.906Z,98574.09
2022-11-02T08:33:46.196Z,98577.41
2022-11-02T08:36:13.536Z,98579.19
2022-11-02T08:38:42.330Z,98577.22
2022-11-02T08:41:09.588Z,98577.47
2022-11-02T08:43:37.114Z,98590.81
2022-11-02T08:46:20.192Z,98583.91
2022-11-02T08:48:47.777Z,98582.09
2022-11-02T08:51:15.810Z,98576.84
2022-11-02T08:53:48.564Z,98584.88
2022-11-02T08:56:17.571Z,98588.91
2022-11-02T08:58:45.158Z,98577.97
2022-11-02T09:01:12.501Z,98592.22
2022-11-02T09:03:40.124Z,98581.34
2022-11-02T09:06:07.521Z,98585.28
2022-11-02T09:08:35.159Z,98570.38
2022-11-02T09:11:04.076Z,98572.03
2022-11-02T09:13:31.929Z,98571.38
2022-11-02T09:16:00.854Z,98582.06
2022-11-02T09:18:28.705Z,98585.53
2022-11-02T09:20:57.119Z,98578.34
2022-11-02T09:23:24.730Z,98577.00
2022-11-02T09:25:52.409Z,98573.72
2022-11-02T09:28:20.243Z,98572.63
2022-11-02T09:30:47.522Z,98586.59
2022-11-02T09:33:15.503Z,98585.75
2022-11-02T09:35:46.975Z,98568.03
2022-11-02T09:38:16.441Z,98576.50
2022-11-02T09:41:12.815Z,98572.75
2022-11-02T09:44:08.780Z,98582.88
2022-11-02T09:46:44.794Z,98571.50
2022-11-02T09:49:24.449Z,98576.16
2022-11-02T09:52:01.414Z,98574.19
2022-11-02T09:54:45.736Z,98582.66
2022-11-02T09:57:28.328Z,98579.59
2022-11-02T09:59:57.392Z,98576.69
2022-11-02T10:03:24.559Z,98573.03
2022-11-02T10:06:23.312Z,98567.94
2022-11-02T10:09:04.279Z,98573.50
2022-11-02T10:12:09.278Z,98580.81
2022-11-02T10:14:56.981Z,98574.31
2022-11-02T10:17:33.442Z,98576.63
2022-11-02T10:20:39.028Z,98566.88
2022-11-02T10:23:18.049Z,98569.53
2022-11-02T10:25:49.511Z,98570.16
2022-11-02T10:28:31.266Z,98570.63
2022-11-02T10:30:59.000Z,98572.56
2022-11-02T10:33:29.544Z,98573.91
2022-11-02T10:36:19.525Z,98572.63
2022-11-02T10:39:23.021Z,98556.44
2022-11-02T10:42:11.163Z,98561.78
2022-11-02T10:45:05.761Z,98559.75
2022-11-02T10:48:14.908Z,98559.69
2022-11-02T10:50:59.401Z,98552.19
2022-11-02T10:53:40.733Z,98551.19
2022-11-02T10:56:32.639Z,98555.44
2022-11-02T10:59:13.011Z,98539.06
2022-11-02T11:01:56.521Z,98543.97
2022-11-02T11:04:28.451Z,98545.13
2022-11-02T11:06:58.239Z,98553.88
2022-11-02T11:09:58.121Z,98546.31
2022-11-02T11:12:41.065Z,98553.31
2022-11-02T11:21:04.677Z,98546.47
2022-11-02T11:23:32.342Z,98537.50
2022-11-02T11:26:04.326Z,98539.94
2022-11-02T11:28:56.113Z,98536.19
2022-11-02T11:31:24.613Z,98538.44
2022-11-02T11:34:00.246Z,98544.56
2022-11-02T11:36:34.746Z,98547.03
2022-11-02T11:39:30.963Z,98542.50
2022-11-02T11:42:05.439Z,98536.22
2022-11-02T11:44:34.495Z,98537.78
2022-11-02T11:47:02.462Z,98538.09
2022-11-02T11:49:55.438Z,98529.31
2022-11-02T11:52:32.202Z,98525.06
2022-11-02T11:55:27.490Z,98525.34
2022-11-02T11:58:24.106Z,98521.69
2022-11-02T12:01:17.340Z,98517.94
2022-11-02T12:03:56.806Z,98523.94
2022-11-02T12:06:37.232Z,98520.88
2022-11-02T12:09:45.421Z,98517.03
2022-11-02T12:12:49.092Z,98513.13
2022-11-02T12:15:45.496Z,98518.88
2022-11-02T12:18:30.833Z,98508.28
2022-11-02T12:21:48.116Z,98503.00
2022-11-02T12:24:31.590Z,98511.16
2022-11-02T12:27:22.448Z,98504.81
2022-11-02T12:29:59.047Z,98506.41
2022-11-02T12:33:10.617Z,98501.38
2022-11-02T12:36:05.301Z,98503.19
2022-11-02T12:39:08.291Z,98498.84
2022-11-02T12:42:03.341Z,98498.44
2022-11-02T12:44:46.686Z,98494.16
2022-11-02T12:47:53.299Z,98495.16
2022-11-02T12:50:47.778Z,98497.00
2022-11-02T12:53:58.664Z,98495.50
2022-11-02T12:56:44.298Z,98486.72
2022-11-02T12:59:34.587Z,98487.72
2022-11-02T13:02:32.293Z,98483.78
2022-11-02T13:05:08.491Z,98488.22
2022-11-02T13:07:48.875Z,98479.25
2022-11-02T13:10:54.414Z,98478.25
2022-11-02T13:13:41.325Z,98481.75
2022-11-02T13:16:11.776Z,98479.31
2022-11-02T13:18:50.372Z,98480.16
2022-11-02T13:21:43.963Z,98476.84
2022-11-02T13:24:19.397Z,98475.81
2022-11-02T13:26:57.136Z,98470.66
2022-11-02T13:29:45.479Z,98483.22
2022-11-02T13:32:41.878Z,98475.50
2022-11-02T13:35:32.249Z,98480.00
2022-11-02T13:38:36.870Z,98475.66
2022-11-02T13:41:25.919Z,98478.72
2022-11-02T13:44:26.979Z,98480.44
2022-11-02T13:47:05.721Z,98484.31
2022-11-02T13:49:41.886Z,98471.47
2022-11-02T13:52:24.632Z,98478.00
2022-11-02T13:54:59.200Z,98483.97
2022-11-02T13:57:40.302Z,98484.22
2022-11-02T14:00:23.890Z,98494.16
2022-11-02T14:03:18.380Z,98482.56
2022-11-02T14:05:54.344Z,98487.94
2022-11-02T14:08:39.351Z,98480.34
2022-11-02T14:11:19.941Z,98488.47
2022-11-02T14:13:56.274Z,98487.31
2022-11-02T14:16:42.457Z,98482.66
2022-11-02T14:19:20.399Z,98489.31
2022-11-02T14:21:59.904Z,98479.00
2022-11-02T14:24:32.867Z,98486.34
2022-11-02T14:27:02.190Z,98482.50
2022-11-02T14:29:54.621Z,98477.69
2022-11-02T14:32:26.686Z,98488.47
2022-11-02T14:35:37.636Z,98482.53
2022-11-02T14:42:10.741Z,98487.03
2022-11-02T14:45:01.166Z,98484.25
2022-11-02T14:47:33.801Z,98493.03
2022-11-02T14:50:17.437Z,98491.19
2022-11-02T14:53:07.761Z,98488.09
2022-11-02T14:55:39.252Z,98487.75
2022-11-02T14:58:19.002Z,98496.00
2022-11-02T15:00:49.839Z,98493.59
2022-11-02T15:03:26.023Z,98495.41
2022-11-02T15:06:10.704Z,98497.47
2022-11-02T15:09:01.181Z,98500.06
2022-11-02T15:11:48.643Z,98499.97
2022-11-02T15:14:37.968Z,98507.59
2022-11-02T15:17:17.140Z,98505.69
2022-11-02T15:19:49.041Z,98505.13
2022-11-02T15:23:14.449Z,98522.25
2022-11-02T15:25:54.744Z,98516.69
2022-11-02T15:28:32.456Z,98519.03
2022-11-02T15:31:15.475Z,98524.44
2022-11-02T15:33:46.980Z,98531.78
2022-11-02T15:36:37.496Z,98532.31
2022-11-02T15:39:12.602Z,98537.31
2022-11-02T15:41:54.431Z,98538.78
2022-11-02T15:45:09.478Z,98546.56
2022-11-02T15:48:20.283Z,98538.88
2022-11-02T15:51:18.276Z,98539.03
2022-11-02T15:54:23.818Z,98544.25
2022-11-02T15:57:30.513Z,98553.34
2022-11-02T16:00:30.466Z,98554.09
2022-11-02T16:03:09.566Z,98539.56
2022-11-02T16:05:47.699Z,98560.94
2022-11-02T16:08:24.657Z,98554.38
2022-11-02T16:11:22.844Z,98563.72
2022-11-02T16:14:08.705Z,98565.16
2022-11-02T16:16:50.469Z,98562.31
2022-11-02T16:19:22.265Z,98562.69
2022-11-02T16:21:50.661Z,98571.25
2022-11-02T16:24:19.811Z,98567.47
2022-11-02T16:26:49.152Z,98570.09
2022-11-02T16:29:30.711Z,98570.47
2022-11-02T16:31:58.399Z,98574.78
2022-11-02T16:34:33.319Z,98573.50
2022-11-02T16:37:10.030Z,98578.88
2022-11-02T16:39:42.129Z,98583.69
2022-11-02T16:42:25.372Z,98585.16
2022-11-02T16:45:04.063Z,98584.47
2022-11-02T16:47:41.816Z,98589.97
2022-11-02T16:50:25.458Z,98594.06
2022-11-02T16:53:02.752Z,98598.03
2022-11-02T16:55:40.530Z,98598.16
2022-11-02T16:58:22.637Z,98596.16
2022-11-02T17:01:05.480Z,98599.16
2022-11-02T17:03:34.875Z,98603.91
2022-11-02T17:06:07.729Z,98602.38
2022-11-02T17:08:38.446Z,98608.13
2022-11-02T17:11:12.393Z,98608.25
2022-11-02T17:13:53.044Z,98614.00
2022-11-02T17:16:21.719Z,98618.28
2022-11-02T17:18:48.889Z,98613.41
2022-11-02T17:21:29.502Z,98619.16
2022-11-02T17:23:59.137Z,98626.22
2022-11-02T17:26:34.772Z,98620.47
2022-11-02T17:29:22.933Z,98625.84
2022-11-02T17:31:57.380Z,98624.66
2022-11-02T17:34:24.986Z,98633.63
2022-11-02T17:36:53.022Z,98639.84
2022-11-02T17:39:21.077Z,98633.03
2022-11-02T17:42:16.677Z,98636.25
2022-11-02T17:44:45.717Z,98642.13
2022-11-02T17:47:17.393Z,98633.84
2022-11-02T17:49:44.757Z,98637.78
2022-11-02T17:52:16.575Z,98626.66
2022-11-02T17:54:43.896Z,98633.84
2022-11-02T17:57:15.831Z,98627.38
2022-11-02T17:59:43.084Z,98629.03
2022-11-02T18:02:15.983Z,98642.41
2022-11-02T18:07:15.881Z,98644.78
2022-11-02T18:09:43.150Z,98636.91
2022-11-02T18:12:14.493Z,98626.94
2022-11-02T18:14:42.289Z,98639.78
2022-11-02T18:17:09.903Z,98635.66
2022-11-02T18:19:37.150Z,98629.94
2022-11-02T18:22:04.776Z,98630.84
2022-11-02T18:24:32.083Z,98646.97
2022-11-02T18:26:59.641Z,98656.00
2022-11-02T18:29:26.820Z,98643.00
2022-11-02T18:31:54.263Z,98652.06
2022-11-02T18:34:21.857Z,98656.81
2022-11-02T18:36:49.375Z,98658.59
2022-11-02T18:39:16.788Z,98656.94
2022-11-02T18:41:44.408Z,98653.19
2022-11-02T18:44:15.300Z,98653.63
2022-11-02T18:46:43.634Z,98655.16
2022-11-02T18:49:11.061Z,98662.53
2022-11-02T18:51:43.065Z,98659.19
2022-11-02T18:54:10.627Z,98669.50
2022-11-02T18:56:38.237Z,98671.72
2022-11-02T18:59:05.409Z,98666.19
2022-11-02T19:01:33.108Z,98668.59
2022-11-02T19:04:01.544Z,98667.63
2022-11-02T19:06:51.828Z,98668.94
2022-11-02T19:09:23.268Z,98675.13
2022-11-02T19:12:29.283Z,98678.69
2022-11-02T19:14:57.334Z,98685.38
2022-11-02T19:17:26.918Z,98671.31
2022-11-02T19:19:54.680Z,98683.19
2022-11-02T19:22:26.199Z,98680.66
2022-11-02T19:24:53.937Z,98684.97
2022-11-02T19:27:25.722Z,98687.34
2022-11-02T19:29:53.182Z,98689.03
2022-11-02T19:32:21.299Z,98691.16
2022-11-02T19:34:48.667Z,98693.56
2022-11-02T19:37:16.316Z,98705.00
2022-11-02T19:39:43.883Z,98704.78
2022-11-02T19:42:11.450Z,98705.97
2022-11-02T19:44:42.760Z,98712.75
2022-11-02T19:47:10.919Z,98708.78
2022-11-02T19:49:38.212Z,98716.88
2022-11-02T19:52:05.826Z,98716.03
2022-11-02T19:54:33.069Z,98714.25
2022-11-02T19:57:00.703Z,98713.31
2022-11-02T19:59:28.714Z,98727.72
2022-11-02T20:01:56.544Z,98716.38
2022-11-02T20:04:23.909Z,98720.16
2022-11-02T20:06:51.497Z,98719.13
2022-11-02T20:09:20.072Z,98723.81
2022-11-02T20:11:48.452Z,98723.09
2022-11-02T20:14:17.639Z,98733.94
2022-11-02T20:16:58.411Z,98723.22
2022-11-02T20:19:32.035Z,98729.41
2022-11-02T20:21:59.638Z,98727.81
2022-11-02T20:24:26.925Z,98728.66
2022-11-02T20:26:57.238Z,98719.72
2022-11-02T20:29:24.537Z,98732.31
2022-11-02T20:31:52.153Z,98728.00
2022-11-02T20:34:19.458Z,98730.22
2022-11-02T20:36:47.627Z,98716.47
2022-11-02T20:39:14.908Z,98720.97
2022-11-02T20:41:42.479Z,98718.13
2022-11-02T20:44:09.781Z,98715.19
2022-11-02T20:46:41.509Z,98721.09
2022-11-02T20:51:57.858Z,98715.31
2022-11-02T20:54:26.250Z,98719.50
2022-11-02T20:56:53.900Z,98723.31
2022-11-02T20:59:21.165Z,98719.41
2022-11-02T21:01:50.806Z,98725.19
2022-11-02T21:04:21.117Z,98718.59
2022-11-02T21:06:50.232Z,98722.78
2022-11-02T21:09:18.514Z,98727.47
2022-11-02T21:12:04.503Z,98724.13
2022-11-02T21:14:31.812Z,98736.94
2022-11-02T21:16:59.431Z,98727.38
2022-11-02T21:19:26.761Z,98731.25
2022-11-02T21:21:59.398Z,98731.00
2022-11-02T21:24:28.963Z,98729.09
2022-11-02T21:26:56.677Z,98732.56
2022-11-02T21:29:24.231Z,98740.72
2022-11-02T21:31:51.742Z,98735.78
2022-11-02T21:34:19.034Z,98729.47
2022-11-02T21:36:48.512Z,98734.00
2022-11-02T21:39:15.962Z,98731.25
2022-11-02T21:41:43.627Z,98741.13
2022-11-02T21:44:12.068Z,98736.84
2022-11-02T21:46:39.694Z,98738.63
2022-11-02T21:49:07.007Z,98731.69
2022-11-02T21:51:35.223Z,98725.50
2022-11-02T21:54:02.414Z,98734.31
2022-11-02T21:56:32.044Z,98737.34
2022-11-02T21:58:59.687Z,98735.03
2022-11-02T22:01:45.565Z,98732.00
2022-11-02T22:04:17.255Z,98730.84
2022-11-02T22:06:44.899Z,98728.63
2022-11-02T22:09:13.542Z,98728.00
2022-11-02T22:11:41.218Z,98725.44
2022-11-02T22:14:08.669Z,98729.34
2022-11-02T22:16:42.748Z,98728.06
2022-11-02T22:19:15.339Z,98733.69
2022-11-02T22:21:45.081Z,98726.44
2022-11-02T22:24:12.655Z,98735.63
2022-11-02T22:26:40.841Z,98733.69
2022-11-02T22:29:08.974Z,98739.53
2022-11-02T22:31:40.123Z,98745.81
2022-11-02T22:34:11.221Z,98747.59
2022-11-02T22:36:44.718Z,98750.22
2022-11-02T22:39:14.168Z,98753.06
2022-11-02T22:41:45.198Z,98762.47
2022-11-02T22:44:15.634Z,98758.81
2022-11-02T22:46:50.361Z,98759.13
2022-11-02T22:49:19.925Z,98752.50
2022-11-02T22:51:50.087Z,98765.97
2022-11-02T22:54:19.909Z,98766.38
2022-11-02T22:56:48.790Z,98764.28
2022-11-02T22:59:16.655Z,98765.13
2022-11-02T23:01:44.294Z,98764.84
2022-11-02T23:04:12.280Z,98766.81
2022-11-02T23:06:40.406Z,98760.47
2022-11-02T23:09:07.727Z,98767.66
2022-11-02T23:11:37.644Z,98760.47
2022-11-02T23:14:14.659Z,98763.81
2022-11-02T23:16:44.464Z,98755.84
2022-11-02T23:19:27.575Z,98762.03
2022-11-02T23:22:23.276Z,98767.16
2022-11-02T23:25:20.105Z,98765.44
2022-11-02T23:28:17.799Z,98760.31
2022-11-02T23:31:03.960Z,98766.66
2022-11-02T23:33:36.433Z,98776.78
2022-11-02T23:36:11.029Z,98772.78
2022-11-02T23:39:03.616Z,98776.44
2022-11-02T23:41:33.773Z,98767.19
2022-11-02T23:44:14.596Z,98767.38
2022-11-02T23:46:48.709Z,98771.13
2022-11-02T23:49:18.347Z,98785.53
2022-11-02T23:52:04.345Z,98776.94
2022-11-02T23:54:50.313Z,98783.25
2022-11-02T23:57:18.711Z,98778.22
2022-11-02T23:59:46.322Z,98782.91
